sensor_id;sensor_type;location;lat;lon;timestamp;P1;durP1;ratioP1;P2;durP2;ratioP2
25125;SDS011;13106;50.808;5.670;2023-07-20T00:00:54;10.30;;;4.45;;
25125;SDS011;13106;50.808;5.670;2023-07-20T00:03:20;5.95;;;4.20;;
25125;SDS011;13106;50.808;5.670;2023-07-20T00:05:50;6.18;;;4.15;;
25125;SDS011;13106;50.808;5.670;2023-07-20T00:08:17;6.97;;;4.30;;
25125;SDS011;13106;50.808;5.670;2023-07-20T00:10:43;8.27;;;4.13;;
25125;SDS011;13106;50.808;5.670;2023-07-20T00:13:10;7.43;;;4.13;;
25125;SDS011;13106;50.808;5.670;2023-07-20T00:15:37;8.13;;;4.07;;
25125;SDS011;13106;50.808;5.670;2023-07-20T00:18:06;7.90;;;4.30;;
25125;SDS011;13106;50.808;5.670;2023-07-20T00:20:32;10.93;;;5.78;;
25125;SDS011;13106;50.808;5.670;2023-07-20T00:22:58;10.45;;;4.80;;
25125;SDS011;13106;50.808;5.670;2023-07-20T00:25:24;8.25;;;4.53;;
25125;SDS011;13106;50.808;5.670;2023-07-20T00:27:50;8.10;;;3.90;;
25125;SDS011;13106;50.808;5.670;2023-07-20T00:30:16;7.28;;;4.20;;
25125;SDS011;13106;50.808;5.670;2023-07-20T00:32:43;7.22;;;3.65;;
25125;SDS011;13106;50.808;5.670;2023-07-20T00:35:09;9.95;;;8.82;;
25125;SDS011;13106;50.808;5.670;2023-07-20T00:37:36;7.10;;;4.15;;
25125;SDS011;13106;50.808;5.670;2023-07-20T00:40:02;9.32;;;4.57;;
25125;SDS011;13106;50.808;5.670;2023-07-20T00:42:35;7.22;;;3.90;;
25125;SDS011;13106;50.808;5.670;2023-07-20T00:45:01;6.72;;;5.32;;
25125;SDS011;13106;50.808;5.670;2023-07-20T00:47:27;6.20;;;4.20;;
25125;SDS011;13106;50.808;5.670;2023-07-20T00:49:53;6.53;;;3.63;;
25125;SDS011;13106;50.808;5.670;2023-07-20T00:52:23;7.93;;;5.50;;
25125;SDS011;13106;50.808;5.670;2023-07-20T00:54:49;7.32;;;3.75;;
25125;SDS011;13106;50.808;5.670;2023-07-20T00:57:15;9.23;;;5.70;;
25125;SDS011;13106;50.808;5.670;2023-07-20T00:59:41;9.45;;;5.55;;
25125;SDS011;13106;50.808;5.670;2023-07-20T01:02:07;9.48;;;8.48;;
25125;SDS011;13106;50.808;5.670;2023-07-20T01:04:34;6.97;;;4.53;;
25125;SDS011;13106;50.808;5.670;2023-07-20T01:07:11;7.32;;;4.15;;
25125;SDS011;13106;50.808;5.670;2023-07-20T01:12:11;4.97;;;4.30;;
25125;SDS011;13106;50.808;5.670;2023-07-20T01:14:38;7.40;;;4.13;;
25125;SDS011;13106;50.808;5.670;2023-07-20T01:17:04;7.35;;;4.05;;
25125;SDS011;13106;50.808;5.670;2023-07-20T01:19:30;6.57;;;4.03;;
25125;SDS011;13106;50.808;5.670;2023-07-20T01:22:02;6.47;;;4.68;;
25125;SDS011;13106;50.808;5.670;2023-07-20T01:25:34;7.70;;;3.97;;
25125;SDS011;13106;50.808;5.670;2023-07-20T01:32:39;8.63;;;4.20;;
25125;SDS011;13106;50.808;5.670;2023-07-20T01:35:06;6.68;;;4.03;;
25125;SDS011;13106;50.808;5.670;2023-07-20T01:37:33;6.18;;;3.60;;
25125;SDS011;13106;50.808;5.670;2023-07-20T01:39:59;7.53;;;3.88;;
25125;SDS011;13106;50.808;5.670;2023-07-20T01:42:26;9.95;;;3.85;;
25125;SDS011;13106;50.808;5.670;2023-07-20T01:44:52;7.57;;;4.03;;
25125;SDS011;13106;50.808;5.670;2023-07-20T01:47:18;9.02;;;4.00;;
25125;SDS011;13106;50.808;5.670;2023-07-20T01:49:45;5.60;;;3.17;;
25125;SDS011;13106;50.808;5.670;2023-07-20T01:52:11;8.40;;;3.45;;
25125;SDS011;13106;50.808;5.670;2023-07-20T01:54:37;6.10;;;3.45;;
25125;SDS011;13106;50.808;5.670;2023-07-20T01:57:03;7.50;;;3.65;;
25125;SDS011;13106;50.808;5.670;2023-07-20T01:59:29;7.18;;;3.70;;
25125;SDS011;13106;50.808;5.670;2023-07-20T02:01:55;8.93;;;3.85;;
25125;SDS011;13106;50.808;5.670;2023-07-20T02:04:21;12.77;;;2.67;;
25125;SDS011;13106;50.808;5.670;2023-07-20T02:06:47;7.20;;;3.10;;
25125;SDS011;13106;50.808;5.670;2023-07-20T02:09:13;7.43;;;3.40;;
25125;SDS011;13106;50.808;5.670;2023-07-20T02:11:39;6.32;;;2.67;;
25125;SDS011;13106;50.808;5.670;2023-07-20T02:14:05;9.70;;;3.22;;
25125;SDS011;13106;50.808;5.670;2023-07-20T02:16:31;7.78;;;2.58;;
25125;SDS011;13106;50.808;5.670;2023-07-20T02:18:57;7.18;;;3.05;;
25125;SDS011;13106;50.808;5.670;2023-07-20T02:21:24;5.35;;;2.97;;
25125;SDS011;13106;50.808;5.670;2023-07-20T02:23:50;7.07;;;3.00;;
25125;SDS011;13106;50.808;5.670;2023-07-20T02:26:16;11.90;;;3.33;;
25125;SDS011;13106;50.808;5.670;2023-07-20T02:28:42;7.85;;;3.10;;
25125;SDS011;13106;50.808;5.670;2023-07-20T02:31:08;4.95;;;2.83;;
25125;SDS011;13106;50.808;5.670;2023-07-20T02:33:34;8.65;;;3.08;;
25125;SDS011;13106;50.808;5.670;2023-07-20T02:36:00;3.97;;;2.55;;
25125;SDS011;13106;50.808;5.670;2023-07-20T02:38:26;8.13;;;2.80;;
25125;SDS011;13106;50.808;5.670;2023-07-20T02:40:53;8.90;;;3.10;;
25125;SDS011;13106;50.808;5.670;2023-07-20T02:43:19;8.43;;;3.45;;
25125;SDS011;13106;50.808;5.670;2023-07-20T02:45:45;8.43;;;3.13;;
25125;SDS011;13106;50.808;5.670;2023-07-20T02:48:11;6.85;;;2.92;;
25125;SDS011;13106;50.808;5.670;2023-07-20T02:50:37;12.27;;;3.28;;
25125;SDS011;13106;50.808;5.670;2023-07-20T02:53:03;8.98;;;3.45;;
25125;SDS011;13106;50.808;5.670;2023-07-20T02:55:29;7.15;;;2.55;;
25125;SDS011;13106;50.808;5.670;2023-07-20T02:57:55;9.05;;;3.10;;
25125;SDS011;13106;50.808;5.670;2023-07-20T03:00:21;9.02;;;2.92;;
25125;SDS011;13106;50.808;5.670;2023-07-20T03:02:48;12.55;;;4.05;;
25125;SDS011;13106;50.808;5.670;2023-07-20T03:05:17;8.35;;;5.43;;
25125;SDS011;13106;50.808;5.670;2023-07-20T03:07:43;9.35;;;4.10;;
25125;SDS011;13106;50.808;5.670;2023-07-20T03:10:10;10.70;;;3.90;;
25125;SDS011;13106;50.808;5.670;2023-07-20T03:12:36;12.00;;;4.68;;
25125;SDS011;13106;50.808;5.670;2023-07-20T03:15:03;14.50;;;4.18;;
25125;SDS011;13106;50.808;5.670;2023-07-20T03:17:29;8.13;;;4.47;;
25125;SDS011;13106;50.808;5.670;2023-07-20T03:19:55;11.00;;;4.15;;
25125;SDS011;13106;50.808;5.670;2023-07-20T03:22:21;9.05;;;4.25;;
25125;SDS011;13106;50.808;5.670;2023-07-20T03:24:49;11.45;;;4.68;;
25125;SDS011;13106;50.808;5.670;2023-07-20T03:27:15;8.23;;;4.22;;
25125;SDS011;13106;50.808;5.670;2023-07-20T03:29:42;10.98;;;4.55;;
25125;SDS011;13106;50.808;5.670;2023-07-20T03:32:09;10.77;;;4.10;;
25125;SDS011;13106;50.808;5.670;2023-07-20T03:34:35;9.25;;;4.68;;
25125;SDS011;13106;50.808;5.670;2023-07-20T03:37:01;8.70;;;3.70;;
25125;SDS011;13106;50.808;5.670;2023-07-20T03:39:29;13.35;;;4.22;;
25125;SDS011;13106;50.808;5.670;2023-07-20T03:41:57;12.73;;;4.35;;
25125;SDS011;13106;50.808;5.670;2023-07-20T03:44:23;12.00;;;4.80;;
25125;SDS011;13106;50.808;5.670;2023-07-20T03:46:49;9.27;;;3.90;;
25125;SDS011;13106;50.808;5.670;2023-07-20T03:49:15;10.20;;;3.97;;
25125;SDS011;13106;50.808;5.670;2023-07-20T03:51:43;13.57;;;3.97;;
25125;SDS011;13106;50.808;5.670;2023-07-20T03:54:09;9.63;;;3.50;;
25125;SDS011;13106;50.808;5.670;2023-07-20T03:56:35;8.77;;;3.50;;
25125;SDS011;13106;50.808;5.670;2023-07-20T03:59:01;9.65;;;4.55;;
25125;SDS011;13106;50.808;5.670;2023-07-20T04:01:27;14.35;;;4.00;;
25125;SDS011;13106;50.808;5.670;2023-07-20T04:03:53;8.23;;;3.83;;
25125;SDS011;13106;50.808;5.670;2023-07-20T04:06:20;8.02;;;4.13;;
25125;SDS011;13106;50.808;5.670;2023-07-20T04:08:46;9.85;;;4.15;;
25125;SDS011;13106;50.808;5.670;2023-07-20T04:11:12;13.32;;;4.47;;
25125;SDS011;13106;50.808;5.670;2023-07-20T04:13:38;16.27;;;4.30;;
25125;SDS011;13106;50.808;5.670;2023-07-20T04:16:04;16.27;;;8.60;;
25125;SDS011;13106;50.808;5.670;2023-07-20T04:18:31;12.65;;;5.45;;
25125;SDS011;13106;50.808;5.670;2023-07-20T04:20:57;10.38;;;3.88;;
25125;SDS011;13106;50.808;5.670;2023-07-20T04:23:23;12.93;;;4.22;;
25125;SDS011;13106;50.808;5.670;2023-07-20T04:25:49;14.23;;;4.70;;
25125;SDS011;13106;50.808;5.670;2023-07-20T04:28:15;13.65;;;7.95;;
25125;SDS011;13106;50.808;5.670;2023-07-20T04:30:41;14.18;;;7.60;;
25125;SDS011;13106;50.808;5.670;2023-07-20T04:33:07;13.50;;;5.57;;
25125;SDS011;13106;50.808;5.670;2023-07-20T04:35:46;11.52;;;5.25;;
25125;SDS011;13106;50.808;5.670;2023-07-20T04:38:13;12.10;;;5.80;;
25125;SDS011;13106;50.808;5.670;2023-07-20T04:40:42;10.95;;;5.25;;
25125;SDS011;13106;50.808;5.670;2023-07-20T04:43:08;12.55;;;5.43;;
25125;SDS011;13106;50.808;5.670;2023-07-20T04:45:35;20.20;;;5.55;;
25125;SDS011;13106;50.808;5.670;2023-07-20T04:48:01;11.52;;;6.05;;
25125;SDS011;13106;50.808;5.670;2023-07-20T04:50:27;8.70;;;5.18;;
25125;SDS011;13106;50.808;5.670;2023-07-20T04:52:54;12.95;;;5.55;;
25125;SDS011;13106;50.808;5.670;2023-07-20T04:55:20;17.55;;;5.38;;
25125;SDS011;13106;50.808;5.670;2023-07-20T04:57:46;14.63;;;5.72;;
25125;SDS011;13106;50.808;5.670;2023-07-20T05:00:12;9.02;;;4.47;;
25125;SDS011;13106;50.808;5.670;2023-07-20T05:02:39;12.00;;;5.13;;
25125;SDS011;13106;50.808;5.670;2023-07-20T05:05:05;16.38;;;5.57;;
25125;SDS011;13106;50.808;5.670;2023-07-20T05:07:31;14.25;;;5.68;;
25125;SDS011;13106;50.808;5.670;2023-07-20T05:09:57;13.55;;;5.38;;
25125;SDS011;13106;50.808;5.670;2023-07-20T05:12:24;13.65;;;4.85;;
25125;SDS011;13106;50.808;5.670;2023-07-20T05:14:50;15.27;;;5.57;;
25125;SDS011;13106;50.808;5.670;2023-07-20T05:17:16;12.05;;;5.90;;
25125;SDS011;13106;50.808;5.670;2023-07-20T05:19:42;11.63;;;5.32;;
25125;SDS011;13106;50.808;5.670;2023-07-20T05:22:08;10.30;;;5.80;;
25125;SDS011;13106;50.808;5.670;2023-07-20T05:24:35;14.65;;;6.53;;
25125;SDS011;13106;50.808;5.670;2023-07-20T05:27:01;9.73;;;6.35;;
25125;SDS011;13106;50.808;5.670;2023-07-20T05:29:28;13.25;;;7.43;;
25125;SDS011;13106;50.808;5.670;2023-07-20T05:31:54;10.35;;;6.38;;
25125;SDS011;13106;50.808;5.670;2023-07-20T05:34:20;16.75;;;7.45;;
25125;SDS011;13106;50.808;5.670;2023-07-20T05:36:46;15.75;;;7.53;;
25125;SDS011;13106;50.808;5.670;2023-07-20T05:39:12;17.90;;;8.15;;
25125;SDS011;13106;50.808;5.670;2023-07-20T05:41:38;20.08;;;8.10;;
25125;SDS011;13106;50.808;5.670;2023-07-20T05:44:04;18.83;;;8.85;;
25125;SDS011;13106;50.808;5.670;2023-07-20T05:46:31;14.45;;;9.68;;
25125;SDS011;13106;50.808;5.670;2023-07-20T05:48:57;16.05;;;9.93;;
25125;SDS011;13106;50.808;5.670;2023-07-20T05:51:23;18.90;;;9.35;;
25125;SDS011;13106;50.808;5.670;2023-07-20T05:53:49;17.75;;;9.82;;
25125;SDS011;13106;50.808;5.670;2023-07-20T05:56:15;17.30;;;9.07;;
25125;SDS011;13106;50.808;5.670;2023-07-20T05:58:41;16.95;;;10.63;;
25125;SDS011;13106;50.808;5.670;2023-07-20T06:01:07;17.02;;;11.25;;
25125;SDS011;13106;50.808;5.670;2023-07-20T06:03:34;17.83;;;11.43;;
25125;SDS011;13106;50.808;5.670;2023-07-20T06:06:00;21.25;;;13.13;;
25125;SDS011;13106;50.808;5.670;2023-07-20T06:08:30;20.20;;;12.57;;
25125;SDS011;13106;50.808;5.670;2023-07-20T06:10:57;17.20;;;11.30;;
25125;SDS011;13106;50.808;5.670;2023-07-20T06:13:23;23.08;;;13.60;;
25125;SDS011;13106;50.808;5.670;2023-07-20T06:15:50;18.83;;;13.32;;
25125;SDS011;13106;50.808;5.670;2023-07-20T06:18:16;16.83;;;11.95;;
25125;SDS011;13106;50.808;5.670;2023-07-20T06:20:42;21.85;;;14.30;;
25125;SDS011;13106;50.808;5.670;2023-07-20T06:23:08;20.58;;;13.30;;
25125;SDS011;13106;50.808;5.670;2023-07-20T06:25:34;18.63;;;13.05;;
25125;SDS011;13106;50.808;5.670;2023-07-20T06:28:00;20.55;;;14.23;;
25125;SDS011;13106;50.808;5.670;2023-07-20T06:30:26;20.02;;;15.68;;
25125;SDS011;13106;50.808;5.670;2023-07-20T06:32:52;20.10;;;14.82;;
25125;SDS011;13106;50.808;5.670;2023-07-20T06:35:18;26.63;;;15.20;;
25125;SDS011;13106;50.808;5.670;2023-07-20T06:37:45;19.35;;;13.48;;
25125;SDS011;13106;50.808;5.670;2023-07-20T06:40:11;19.95;;;13.27;;
25125;SDS011;13106;50.808;5.670;2023-07-20T06:42:37;21.13;;;13.50;;
25125;SDS011;13106;50.808;5.670;2023-07-20T06:45:03;18.65;;;13.68;;
25125;SDS011;13106;50.808;5.670;2023-07-20T06:47:29;21.83;;;13.20;;
25125;SDS011;13106;50.808;5.670;2023-07-20T06:49:55;18.20;;;11.73;;
25125;SDS011;13106;50.808;5.670;2023-07-20T06:52:21;15.00;;;10.73;;
25125;SDS011;13106;50.808;5.670;2023-07-20T06:54:47;14.93;;;10.60;;
25125;SDS011;13106;50.808;5.670;2023-07-20T06:57:13;18.42;;;12.52;;
25125;SDS011;13106;50.808;5.670;2023-07-20T06:59:39;15.80;;;10.90;;
25125;SDS011;13106;50.808;5.670;2023-07-20T07:02:05;15.18;;;11.32;;
25125;SDS011;13106;50.808;5.670;2023-07-20T07:04:31;15.43;;;10.82;;
25125;SDS011;13106;50.808;5.670;2023-07-20T07:06:58;16.67;;;10.45;;
25125;SDS011;13106;50.808;5.670;2023-07-20T07:09:25;16.00;;;9.43;;
25125;SDS011;13106;50.808;5.670;2023-07-20T07:11:51;9.40;;;7.47;;
25125;SDS011;13106;50.808;5.670;2023-07-20T07:14:18;10.02;;;7.63;;
25125;SDS011;13106;50.808;5.670;2023-07-20T07:16:44;10.10;;;7.25;;
25125;SDS011;13106;50.808;5.670;2023-07-20T07:19:10;8.50;;;7.30;;
25125;SDS011;13106;50.808;5.670;2023-07-20T07:21:36;11.90;;;7.70;;
25125;SDS011;13106;50.808;5.670;2023-07-20T07:24:02;12.45;;;6.25;;
25125;SDS011;13106;50.808;5.670;2023-07-20T07:26:28;13.75;;;7.57;;
25125;SDS011;13106;50.808;5.670;2023-07-20T07:28:54;9.52;;;7.68;;
25125;SDS011;13106;50.808;5.670;2023-07-20T07:31:20;11.98;;;7.72;;
25125;SDS011;13106;50.808;5.670;2023-07-20T07:33:48;14.45;;;7.90;;
25125;SDS011;13106;50.808;5.670;2023-07-20T07:36:14;11.98;;;8.80;;
25125;SDS011;13106;50.808;5.670;2023-07-20T07:38:40;14.10;;;7.38;;
25125;SDS011;13106;50.808;5.670;2023-07-20T07:41:06;11.10;;;7.30;;
25125;SDS011;13106;50.808;5.670;2023-07-20T07:43:32;9.32;;;7.13;;
25125;SDS011;13106;50.808;5.670;2023-07-20T07:46:00;10.75;;;6.82;;
25125;SDS011;13106;50.808;5.670;2023-07-20T07:48:27;8.10;;;5.10;;
25125;SDS011;13106;50.808;5.670;2023-07-20T07:50:53;7.60;;;4.60;;
25125;SDS011;13106;50.808;5.670;2023-07-20T07:53:19;6.53;;;5.40;;
25125;SDS011;13106;50.808;5.670;2023-07-20T07:55:47;11.75;;;6.55;;
25125;SDS011;13106;50.808;5.670;2023-07-20T07:58:13;9.80;;;6.28;;
25125;SDS011;13106;50.808;5.670;2023-07-20T08:00:39;7.68;;;5.97;;
25125;SDS011;13106;50.808;5.670;2023-07-20T08:03:06;7.13;;;4.93;;
25125;SDS011;13106;50.808;5.670;2023-07-20T08:05:32;5.75;;;4.25;;
25125;SDS011;13106;50.808;5.670;2023-07-20T08:08:00;5.57;;;3.60;;
25125;SDS011;13106;50.808;5.670;2023-07-20T08:10:26;6.35;;;4.32;;
25125;SDS011;13106;50.808;5.670;2023-07-20T08:12:52;8.48;;;5.50;;
25125;SDS011;13106;50.808;5.670;2023-07-20T08:15:18;5.15;;;4.07;;
25125;SDS011;13106;50.808;5.670;2023-07-20T08:17:44;8.18;;;5.90;;
25125;SDS011;13106;50.808;5.670;2023-07-20T08:20:10;6.30;;;4.32;;
25125;SDS011;13106;50.808;5.670;2023-07-20T08:22:37;5.57;;;3.58;;
25125;SDS011;13106;50.808;5.670;2023-07-20T08:25:04;4.90;;;3.53;;
25125;SDS011;13106;50.808;5.670;2023-07-20T08:27:30;4.97;;;3.22;;
25125;SDS011;13106;50.808;5.670;2023-07-20T08:29:56;5.63;;;3.80;;
25125;SDS011;13106;50.808;5.670;2023-07-20T08:32:22;9.48;;;3.85;;
25125;SDS011;13106;50.808;5.670;2023-07-20T08:34:48;4.45;;;2.90;;
25125;SDS011;13106;50.808;5.670;2023-07-20T08:37:14;5.40;;;3.53;;
25125;SDS011;13106;50.808;5.670;2023-07-20T08:39:40;4.78;;;2.80;;
25125;SDS011;13106;50.808;5.670;2023-07-20T08:42:06;4.55;;;2.83;;
25125;SDS011;13106;50.808;5.670;2023-07-20T08:44:33;9.60;;;3.95;;
25125;SDS011;13106;50.808;5.670;2023-07-20T08:47:00;6.15;;;3.95;;
25125;SDS011;13106;50.808;5.670;2023-07-20T08:49:29;4.43;;;3.30;;
25125;SDS011;13106;50.808;5.670;2023-07-20T08:51:55;4.22;;;3.00;;
25125;SDS011;13106;50.808;5.670;2023-07-20T08:54:21;4.50;;;2.95;;
25125;SDS011;13106;50.808;5.670;2023-07-20T08:56:47;3.72;;;2.00;;
25125;SDS011;13106;50.808;5.670;2023-07-20T08:59:15;2.28;;;1.95;;
25125;SDS011;13106;50.808;5.670;2023-07-20T09:01:43;3.92;;;2.35;;
25125;SDS011;13106;50.808;5.670;2023-07-20T09:04:10;5.55;;;2.67;;
25125;SDS011;13106;50.808;5.670;2023-07-20T09:06:37;3.58;;;2.58;;
25125;SDS011;13106;50.808;5.670;2023-07-20T09:09:03;5.95;;;2.90;;
25125;SDS011;13106;50.808;5.670;2023-07-20T09:11:30;4.93;;;3.22;;
25125;SDS011;13106;50.808;5.670;2023-07-20T09:14:03;5.85;;;3.20;;
25125;SDS011;13106;50.808;5.670;2023-07-20T09:16:29;5.35;;;2.88;;
25125;SDS011;13106;50.808;5.670;2023-07-20T09:18:57;3.40;;;2.75;;
25125;SDS011;13106;50.808;5.670;2023-07-20T09:21:23;5.78;;;2.90;;
25125;SDS011;13106;50.808;5.670;2023-07-20T09:23:49;5.75;;;3.45;;
25125;SDS011;13106;50.808;5.670;2023-07-20T09:26:18;3.90;;;3.05;;
25125;SDS011;13106;50.808;5.670;2023-07-20T09:29:05;5.18;;;2.85;;
25125;SDS011;13106;50.808;5.670;2023-07-20T09:34:00;4.63;;;2.67;;
25125;SDS011;13106;50.808;5.670;2023-07-20T09:36:26;5.50;;;2.15;;
25125;SDS011;13106;50.808;5.670;2023-07-20T09:38:52;3.30;;;2.13;;
25125;SDS011;13106;50.808;5.670;2023-07-20T09:41:19;3.95;;;2.15;;
25125;SDS011;13106;50.808;5.670;2023-07-20T09:43:46;2.83;;;2.00;;
25125;SDS011;13106;50.808;5.670;2023-07-20T09:46:12;3.70;;;1.98;;
25125;SDS011;13106;50.808;5.670;2023-07-20T09:48:39;3.50;;;2.00;;
25125;SDS011;13106;50.808;5.670;2023-07-20T09:51:07;4.10;;;2.10;;
25125;SDS011;13106;50.808;5.670;2023-07-20T09:53:33;3.38;;;1.95;;
25125;SDS011;13106;50.808;5.670;2023-07-20T09:55:59;1.75;;;1.65;;
25125;SDS011;13106;50.808;5.670;2023-07-20T09:58:26;2.95;;;2.20;;
25125;SDS011;13106;50.808;5.670;2023-07-20T10:00:56;4.30;;;2.75;;
25125;SDS011;13106;50.808;5.670;2023-07-20T10:03:24;4.00;;;2.03;;
25125;SDS011;13106;50.808;5.670;2023-07-20T10:05:56;4.35;;;2.00;;
25125;SDS011;13106;50.808;5.670;2023-07-20T10:08:25;3.15;;;1.92;;
25125;SDS011;13106;50.808;5.670;2023-07-20T10:10:51;3.63;;;2.13;;
25125;SDS011;13106;50.808;5.670;2023-07-20T10:13:18;3.28;;;2.30;;
25125;SDS011;13106;50.808;5.670;2023-07-20T10:15:49;2.45;;;1.83;;
25125;SDS011;13106;50.808;5.670;2023-07-20T10:18:25;3.42;;;1.67;;
25125;SDS011;13106;50.808;5.670;2023-07-20T10:20:54;2.75;;;1.42;;
25125;SDS011;13106;50.808;5.670;2023-07-20T10:23:21;2.42;;;1.60;;
25125;SDS011;13106;50.808;5.670;2023-07-20T10:25:48;1.30;;;1.15;;
25125;SDS011;13106;50.808;5.670;2023-07-20T10:28:14;2.22;;;1.98;;
25125;SDS011;13106;50.808;5.670;2023-07-20T10:30:40;1.95;;;1.48;;
25125;SDS011;13106;50.808;5.670;2023-07-20T10:33:07;2.75;;;2.10;;
25125;SDS011;13106;50.808;5.670;2023-07-20T10:38:19;2.80;;;1.73;;
25125;SDS011;13106;50.808;5.670;2023-07-20T10:40:53;2.78;;;1.70;;
25125;SDS011;13106;50.808;5.670;2023-07-20T10:43:20;2.75;;;1.83;;
25125;SDS011;13106;50.808;5.670;2023-07-20T10:45:50;1.40;;;1.30;;
25125;SDS011;13106;50.808;5.670;2023-07-20T10:50:42;2.97;;;1.40;;
25125;SDS011;13106;50.808;5.670;2023-07-20T10:53:12;2.67;;;1.90;;
25125;SDS011;13106;50.808;5.670;2023-07-20T10:58:08;3.20;;;1.40;;
25125;SDS011;13106;50.808;5.670;2023-07-20T11:00:37;2.97;;;1.42;;
25125;SDS011;13106;50.808;5.670;2023-07-20T11:03:04;2.53;;;1.15;;
25125;SDS011;13106;50.808;5.670;2023-07-20T11:05:37;4.63;;;1.52;;
25125;SDS011;13106;50.808;5.670;2023-07-20T11:08:04;2.85;;;1.13;;
25125;SDS011;13106;50.808;5.670;2023-07-20T11:10:31;2.88;;;1.20;;
25125;SDS011;13106;50.808;5.670;2023-07-20T11:18:26;3.10;;;1.60;;
25125;SDS011;13106;50.808;5.670;2023-07-20T11:20:52;2.42;;;1.20;;
25125;SDS011;13106;50.808;5.670;2023-07-20T11:23:22;2.95;;;1.40;;
25125;SDS011;13106;50.808;5.670;2023-07-20T11:25:48;3.25;;;0.95;;
25125;SDS011;13106;50.808;5.670;2023-07-20T11:28:15;2.10;;;1.20;;
25125;SDS011;13106;50.808;5.670;2023-07-20T11:30:41;1.20;;;1.10;;
25125;SDS011;13106;50.808;5.670;2023-07-20T11:33:09;2.00;;;1.33;;
25125;SDS011;13106;50.808;5.670;2023-07-20T11:35:45;1.63;;;1.30;;
25125;SDS011;13106;50.808;5.670;2023-07-20T11:38:12;1.92;;;1.30;;
25125;SDS011;13106;50.808;5.670;2023-07-20T11:40:42;1.48;;;1.20;;
25125;SDS011;13106;50.808;5.670;2023-07-20T11:43:08;4.68;;;1.42;;
25125;SDS011;13106;50.808;5.670;2023-07-20T11:45:35;2.97;;;1.20;;
25125;SDS011;13106;50.808;5.670;2023-07-20T11:48:01;1.38;;;1.05;;
25125;SDS011;13106;50.808;5.670;2023-07-20T11:50:27;1.77;;;1.50;;
25125;SDS011;13106;50.808;5.670;2023-07-20T11:52:53;1.58;;;1.20;;
25125;SDS011;13106;50.808;5.670;2023-07-20T11:55:20;2.08;;;1.48;;
25125;SDS011;13106;50.808;5.670;2023-07-20T11:58:04;2.10;;;1.20;;
25125;SDS011;13106;50.808;5.670;2023-07-20T12:00:31;2.97;;;1.30;;
25125;SDS011;13106;50.808;5.670;2023-07-20T12:02:58;2.63;;;1.50;;
25125;SDS011;13106;50.808;5.670;2023-07-20T12:05:24;4.00;;;1.67;;
25125;SDS011;13106;50.808;5.670;2023-07-20T12:07:51;2.45;;;1.38;;
25125;SDS011;13106;50.808;5.670;2023-07-20T12:10:23;2.08;;;1.00;;
25125;SDS011;13106;50.808;5.670;2023-07-20T12:12:49;1.77;;;1.23;;
25125;SDS011;13106;50.808;5.670;2023-07-20T12:17:52;2.35;;;1.00;;
25125;SDS011;13106;50.808;5.670;2023-07-20T12:20:25;3.40;;;0.77;;
25125;SDS011;13106;50.808;5.670;2023-07-20T12:22:52;3.05;;;1.10;;
25125;SDS011;13106;50.808;5.670;2023-07-20T12:25:19;3.58;;;1.30;;
25125;SDS011;13106;50.808;5.670;2023-07-20T12:27:45;1.55;;;0.93;;
25125;SDS011;13106;50.808;5.670;2023-07-20T12:30:12;1.88;;;0.95;;
25125;SDS011;13106;50.808;5.670;2023-07-20T12:32:38;2.65;;;1.20;;
25125;SDS011;13106;50.808;5.670;2023-07-20T12:35:05;3.03;;;1.20;;
25125;SDS011;13106;50.808;5.670;2023-07-20T12:37:31;1.77;;;0.90;;
25125;SDS011;13106;50.808;5.670;2023-07-20T12:39:57;2.20;;;0.90;;
25125;SDS011;13106;50.808;5.670;2023-07-20T12:42:23;1.85;;;1.10;;
25125;SDS011;13106;50.808;5.670;2023-07-20T12:44:49;2.95;;;1.20;;
25125;SDS011;13106;50.808;5.670;2023-07-20T12:47:16;2.22;;;1.25;;
25125;SDS011;13106;50.808;5.670;2023-07-20T12:49:42;2.58;;;1.00;;
25125;SDS011;13106;50.808;5.670;2023-07-20T12:52:11;1.27;;;1.10;;
25125;SDS011;13106;50.808;5.670;2023-07-20T12:54:38;1.05;;;0.90;;
25125;SDS011;13106;50.808;5.670;2023-07-20T12:57:04;1.88;;;0.82;;
25125;SDS011;13106;50.808;5.670;2023-07-20T12:59:33;1.02;;;0.77;;
25125;SDS011;13106;50.808;5.670;2023-07-20T13:01:59;1.40;;;0.80;;
25125;SDS011;13106;50.808;5.670;2023-07-20T13:04:25;0.90;;;0.75;;
25125;SDS011;13106;50.808;5.670;2023-07-20T13:06:51;1.25;;;0.70;;
25125;SDS011;13106;50.808;5.670;2023-07-20T13:09:17;1.65;;;0.80;;
25125;SDS011;13106;50.808;5.670;2023-07-20T13:11:43;0.90;;;0.70;;
25125;SDS011;13106;50.808;5.670;2023-07-20T13:14:11;1.27;;;0.80;;
25125;SDS011;13106;50.808;5.670;2023-07-20T13:16:37;1.13;;;0.60;;
25125;SDS011;13106;50.808;5.670;2023-07-20T13:19:03;2.28;;;0.88;;
25125;SDS011;13106;50.808;5.670;2023-07-20T13:21:29;2.08;;;0.80;;
25125;SDS011;13106;50.808;5.670;2023-07-20T13:23:55;1.27;;;0.93;;
25125;SDS011;13106;50.808;5.670;2023-07-20T13:26:21;2.13;;;0.80;;
25125;SDS011;13106;50.808;5.670;2023-07-20T13:28:47;3.15;;;1.08;;
25125;SDS011;13106;50.808;5.670;2023-07-20T13:31:13;1.95;;;0.90;;
25125;SDS011;13106;50.808;5.670;2023-07-20T13:33:39;1.17;;;0.80;;
25125;SDS011;13106;50.808;5.670;2023-07-20T13:36:05;2.13;;;1.08;;
25125;SDS011;13106;50.808;5.670;2023-07-20T13:38:31;1.15;;;0.88;;
25125;SDS011;13106;50.808;5.670;2023-07-20T13:40:57;1.60;;;1.10;;
25125;SDS011;13106;50.808;5.670;2023-07-20T13:43:23;2.10;;;1.10;;
25125;SDS011;13106;50.808;5.670;2023-07-20T13:45:50;2.72;;;0.90;;
25125;SDS011;13106;50.808;5.670;2023-07-20T13:48:16;0.98;;;0.80;;
25125;SDS011;13106;50.808;5.670;2023-07-20T13:50:44;1.10;;;1.00;;
25125;SDS011;13106;50.808;5.670;2023-07-20T13:53:10;1.27;;;0.93;;
25125;SDS011;13106;50.808;5.670;2023-07-20T13:55:38;2.28;;;1.00;;
25125;SDS011;13106;50.808;5.670;2023-07-20T13:58:04;1.80;;;0.95;;
25125;SDS011;13106;50.808;5.670;2023-07-20T14:00:30;1.48;;;0.90;;
25125;SDS011;13106;50.808;5.670;2023-07-20T14:02:58;1.17;;;0.80;;
25125;SDS011;13106;50.808;5.670;2023-07-20T14:05:24;3.88;;;0.90;;
25125;SDS011;13106;50.808;5.670;2023-07-20T14:07:50;1.67;;;0.88;;
25125;SDS011;13106;50.808;5.670;2023-07-20T14:10:17;3.53;;;1.05;;
25125;SDS011;13106;50.808;5.670;2023-07-20T14:12:43;2.30;;;0.85;;
25125;SDS011;13106;50.808;5.670;2023-07-20T14:15:10;1.10;;;0.77;;
25125;SDS011;13106;50.808;5.670;2023-07-20T14:17:36;1.58;;;0.90;;
25125;SDS011;13106;50.808;5.670;2023-07-20T14:20:02;1.40;;;0.90;;
25125;SDS011;13106;50.808;5.670;2023-07-20T14:22:31;0.98;;;0.80;;
25125;SDS011;13106;50.808;5.670;2023-07-20T14:24:57;2.88;;;1.00;;
25125;SDS011;13106;50.808;5.670;2023-07-20T14:27:24;2.42;;;1.10;;
25125;SDS011;13106;50.808;5.670;2023-07-20T14:29:50;1.40;;;0.90;;
25125;SDS011;13106;50.808;5.670;2023-07-20T14:32:16;2.35;;;0.88;;
25125;SDS011;13106;50.808;5.670;2023-07-20T14:34:42;2.35;;;0.80;;
25125;SDS011;13106;50.808;5.670;2023-07-20T14:37:08;1.55;;;0.80;;
25125;SDS011;13106;50.808;5.670;2023-07-20T14:39:34;1.58;;;1.10;;
25125;SDS011;13106;50.808;5.670;2023-07-20T14:42:00;3.50;;;1.15;;
25125;SDS011;13106;50.808;5.670;2023-07-20T14:44:28;1.95;;;0.90;;
25125;SDS011;13106;50.808;5.670;2023-07-20T14:46:54;0.93;;;0.70;;
25125;SDS011;13106;50.808;5.670;2023-07-20T14:49:21;1.02;;;0.70;;
25125;SDS011;13106;50.808;5.670;2023-07-20T14:51:47;2.20;;;0.70;;
25125;SDS011;13106;50.808;5.670;2023-07-20T14:54:14;2.60;;;0.82;;
25125;SDS011;13106;50.808;5.670;2023-07-20T14:56:45;1.13;;;0.80;;
25125;SDS011;13106;50.808;5.670;2023-07-20T14:59:14;1.98;;;0.93;;
25125;SDS011;13106;50.808;5.670;2023-07-20T15:01:40;1.02;;;0.70;;
25125;SDS011;13106;50.808;5.670;2023-07-20T15:04:07;2.50;;;0.80;;
25125;SDS011;13106;50.808;5.670;2023-07-20T15:06:34;0.82;;;0.70;;